createdAt,value
2019-01-21T00:00:42.638Z,-4.37
2019-01-21T00:03:14.693Z,-4.30
2019-01-21T00:05:41.742Z,-4.23
2019-01-21T00:08:10.450Z,-4.32
2019-01-21T00:10:39.094Z,-4.35
2019-01-21T00:13:07.683Z,-4.18
2019-01-21T00:15:36.319Z,-4.11
2019-01-21T00:18:05.044Z,-4.02
2019-01-21T00:20:33.625Z,-3.96
2019-01-21T00:23:02.521Z,-4.02
2019-01-21T00:25:31.301Z,-3.96
2019-01-21T00:27:59.885Z,-4.04
2019-01-21T00:30:28.584Z,-3.94
2019-01-21T00:32:57.195Z,-4.04
2019-01-21T00:35:25.936Z,-4.03
2019-01-21T00:37:54.570Z,-4.03
2019-01-21T00:40:23.582Z,-4.09
2019-01-21T00:42:52.225Z,-4.08
2019-01-21T00:45:20.989Z,-4.08
2019-01-21T00:47:49.665Z,-3.96
2019-01-21T00:50:18.443Z,-4.03
2019-01-21T00:52:47.049Z,-4.04
2019-01-21T00:55:15.753Z,-3.89
2019-01-21T00:57:44.518Z,-3.95
2019-01-21T01:00:19.188Z,-3.90
2019-01-21T01:02:47.960Z,-3.93
2019-01-21T01:05:17.001Z,-3.96
2019-01-21T01:07:46.950Z,-3.90
2019-01-21T01:10:15.580Z,-3.94
2019-01-21T01:12:44.176Z,-3.94
2019-01-21T01:15:13.137Z,-3.87
2019-01-21T01:17:41.810Z,-4.02
2019-01-21T01:20:14.125Z,-3.98
2019-01-21T01:22:43.141Z,-3.93
2019-01-21T01:25:11.845Z,-3.94
2019-01-21T01:27:41.367Z,-3.96
2019-01-21T01:30:11.822Z,-4.08
2019-01-21T01:32:40.435Z,-4.08
2019-01-21T01:35:09.858Z,-4.08
2019-01-21T01:37:38.560Z,-4.13
2019-01-21T01:40:09.395Z,-4.16
2019-01-21T01:42:38.053Z,-4.14
2019-01-21T01:45:07.274Z,-4.19
2019-01-21T01:47:35.932Z,-4.20
2019-01-21T01:50:05.374Z,-4.30
2019-01-21T01:52:34.022Z,-4.34
2019-01-21T01:55:02.943Z,-4.33
2019-01-21T01:57:31.689Z,-4.35
2019-01-21T02:00:00.409Z,-4.48
2019-01-21T02:02:29.102Z,-4.50
2019-01-21T02:04:57.674Z,-4.45
2019-01-21T02:07:26.463Z,-4.43
2019-01-21T02:09:55.188Z,-4.37
2019-01-21T02:12:23.867Z,-4.40
2019-01-21T02:14:52.497Z,-4.36
2019-01-21T02:17:21.332Z,-4.52
2019-01-21T02:19:49.993Z,-4.48
2019-01-21T02:22:18.668Z,-4.54
2019-01-21T02:24:47.359Z,-4.46
2019-01-21T02:27:18.432Z,-4.52
2019-01-21T02:30:10.698Z,-4.45
2019-01-21T02:33:24.395Z,-4.46
2019-01-21T02:36:35.319Z,-4.42
2019-01-21T02:39:25.237Z,-4.49
2019-01-21T02:42:22.607Z,-4.36
2019-01-21T02:45:32.688Z,-4.43
2019-01-21T02:48:48.930Z,-4.54
2019-01-21T02:52:14.542Z,-4.60
2019-01-21T02:54:52.176Z,-4.56
2019-01-21T02:57:32.620Z,-4.51
2019-01-21T03:00:30.068Z,-4.45
2019-01-21T03:03:43.926Z,-4.53
2019-01-21T03:06:28.123Z,-4.70
2019-01-21T03:09:37.871Z,-4.72
2019-01-21T03:12:35.297Z,-4.64
2019-01-21T03:15:42.606Z,-4.49
2019-01-21T03:18:39.180Z,-4.50
2019-01-21T03:21:26.200Z,-4.55
2019-01-21T03:24:45.368Z,-4.54
2019-01-21T03:27:33.924Z,-4.55
2019-01-21T03:30:35.766Z,-4.73
2019-01-21T03:33:41.569Z,-4.82
2019-01-21T03:36:48.404Z,-4.69
2019-01-21T03:39:55.657Z,-4.59
2019-01-21T03:42:56.057Z,-4.74
2019-01-21T03:45:36.714Z,-4.69
2019-01-21T03:48:28.598Z,-4.68
2019-01-21T03:51:53.863Z,-4.63
2019-01-21T03:54:26.787Z,-4.70
2019-01-21T03:57:20.183Z,-4.73
2019-01-21T04:00:02.090Z,-4.70
2019-01-21T04:03:10.628Z,-4.65
2019-01-21T04:05:53.368Z,-4.65
2019-01-21T04:08:50.314Z,-4.62
2019-01-21T04:11:53.585Z,-4.53
2019-01-21T04:14:55.433Z,-4.54
2019-01-21T04:17:56.981Z,-4.58
2019-01-21T04:20:59.081Z,-4.63
2019-01-21T04:23:53.682Z,-4.83
2019-01-21T04:26:42.908Z,-4.69
2019-01-21T04:29:48.045Z,-4.69
2019-01-21T04:32:32.143Z,-4.65
2019-01-21T04:35:49.754Z,-4.67
2019-01-21T04:38:57.756Z,-4.74
2019-01-21T04:42:17.015Z,-4.75
2019-01-21T04:45:20.553Z,-4.88
2019-01-21T04:48:07.323Z,-4.89
2019-01-21T04:50:52.494Z,-4.79
2019-01-21T04:53:33.476Z,-4.81
2019-01-21T04:56:36.131Z,-4.78
2019-01-21T04:59:41.544Z,-4.78
2019-01-21T05:02:42.536Z,-4.91
2019-01-21T05:05:27.519Z,-4.96
2019-01-21T05:08:34.669Z,-4.86
2019-01-21T05:11:36.879Z,-5.00
2019-01-21T05:14:59.738Z,-5.02
2019-01-21T05:18:03.890Z,-5.01
2019-01-21T05:21:30.897Z,-4.97
2019-01-21T05:24:50.092Z,-4.86
2019-01-21T05:28:18.278Z,-4.88
2019-01-21T05:31:25.494Z,-4.90
2019-01-21T05:34:33.079Z,-4.86
2019-01-21T05:37:38.938Z,-4.83
2019-01-21T05:40:37.603Z,-4.93
2019-01-21T05:44:00.037Z,-4.85
2019-01-21T05:47:12.609Z,-4.89
2019-01-21T05:50:25.042Z,-4.92
2019-01-21T05:53:23.798Z,-4.81
2019-01-21T05:56:16.947Z,-4.96
2019-01-21T05:59:40.681Z,-5.08
2019-01-21T06:02:36.743Z,-4.99
2019-01-21T06:05:29.600Z,-4.99
2019-01-21T06:08:58.103Z,-5.04
2019-01-21T06:12:04.980Z,-4.96
2019-01-21T06:15:06.360Z,-5.17
2019-01-21T06:17:50.117Z,-5.09
2019-01-21T06:20:50.570Z,-5.10
2019-01-21T06:23:29.560Z,-5.19
2019-01-21T06:26:42.892Z,-5.08
2019-01-21T06:29:30.665Z,-5.02
2019-01-21T06:32:45.780Z,-5.04
2019-01-21T06:36:04.873Z,-5.16
2019-01-21T06:39:21.258Z,-5.02
2019-01-21T06:42:32.427Z,-4.95
2019-01-21T06:45:48.397Z,-5.17
2019-01-21T06:49:04.670Z,-5.23
2019-01-21T06:52:20.289Z,-5.34
2019-01-21T06:55:12.834Z,-5.52
2019-01-21T06:58:21.718Z,-5.51
2019-01-21T07:01:35.291Z,-5.58
2019-01-21T07:04:34.560Z,-5.64
2019-01-21T07:07:42.285Z,-5.62
2019-01-21T07:10:36.733Z,-5.61
2019-01-21T07:13:18.773Z,-5.46
2019-01-21T07:16:19.894Z,-5.42
2019-01-21T07:19:48.383Z,-5.42
2019-01-21T07:22:46.585Z,-5.61
2019-01-21T07:25:58.525Z,-5.54
2019-01-21T07:29:23.869Z,-5.23
2019-01-21T07:32:09.084Z,-5.09
2019-01-21T07:35:05.651Z,-5.11
2019-01-21T07:37:44.455Z,-5.14
2019-01-21T07:40:39.886Z,-5.20
2019-01-21T07:43:45.724Z,-5.07
2019-01-21T07:46:53.295Z,-5.20
2019-01-21T07:50:12.824Z,-5.12
2019-01-21T07:53:24.175Z,-5.02
2019-01-21T07:56:29.369Z,-5.01
2019-01-21T07:59:29.322Z,-4.87
2019-01-21T08:02:06.148Z,-4.87
2019-01-21T08:05:14.658Z,-4.85
2019-01-21T08:07:59.503Z,-4.77
2019-01-21T08:10:57.579Z,-4.70
2019-01-21T08:13:45.824Z,-4.70
2019-01-21T08:16:35.816Z,-4.70
2019-01-21T08:19:25.269Z,-4.71
2019-01-21T08:22:42.604Z,-4.50
2019-01-21T08:25:54.290Z,-4.35
2019-01-21T08:29:01.863Z,-4.48
2019-01-21T08:31:59.859Z,-4.42
2019-01-21T08:35:05.741Z,-4.38
2019-01-21T08:37:43.572Z,-4.25
2019-01-21T08:40:48.068Z,-4.23
2019-01-21T08:44:04.534Z,-4.21
2019-01-21T08:47:11.764Z,-4.24
2019-01-21T08:50:08.523Z,-4.30
2019-01-21T08:53:11.284Z,-4.18
2019-01-21T08:56:11.631Z,-3.94
2019-01-21T08:59:27.892Z,-3.88
2019-01-21T09:02:18.813Z,-3.88
2019-01-21T09:05:37.072Z,-3.85
2019-01-21T09:08:48.893Z,-3.79
2019-01-21T09:11:53.583Z,-3.81
2019-01-21T09:15:02.405Z,-3.52
2019-01-21T09:17:45.970Z,-3.49
2019-01-21T09:20:47.192Z,-3.48
2019-01-21T09:23:51.909Z,-3.44
2019-01-21T09:26:52.239Z,-3.23
2019-01-21T09:29:58.197Z,-3.10
2019-01-21T09:32:57.811Z,-3.06
2019-01-21T09:35:49.671Z,-2.94
2019-01-21T09:39:00.112Z,-3.06
2019-01-21T09:41:47.561Z,-3.10
2019-01-21T09:44:44.093Z,-2.86
2019-01-21T09:47:11.562Z,-2.82
2019-01-21T09:49:43.728Z,-2.72
2019-01-21T09:52:12.268Z,-2.56
2019-01-21T09:54:41.340Z,-2.57
2019-01-21T09:57:15.328Z,-2.44
2019-01-21T09:59:43.964Z,-2.43
2019-01-21T10:02:14.286Z,-2.26
2019-01-21T10:04:57.451Z,-2.34
2019-01-21T10:07:39.381Z,-2.32
2019-01-21T10:10:28.628Z,-2.06
2019-01-21T10:13:56.738Z,-1.94
2019-01-21T10:17:11.780Z,-1.96
2019-01-21T10:20:31.319Z,-1.99
2019-01-21T10:23:37.296Z,-1.71
2019-01-21T10:26:30.730Z,-1.54
2019-01-21T10:29:13.467Z,-1.51
2019-01-21T10:32:41.528Z,-1.02
2019-01-21T10:35:55.304Z,-0.91
2019-01-21T10:39:13.817Z,-1.05
2019-01-21T10:42:08.505Z,-1.01
2019-01-21T10:45:31.038Z,-1.08
2019-01-21T10:48:41.305Z,-1.01
2019-01-21T10:51:44.346Z,-0.99
2019-01-21T10:54:34.608Z,-0.96
2019-01-21T10:57:38.545Z,-0.89
2019-01-21T11:00:35.483Z,-0.89
2019-01-21T11:03:43.170Z,-0.80
2019-01-21T11:07:10.318Z,-0.76
2019-01-21T11:10:16.524Z,-0.60
2019-01-21T11:13:07.598Z,-0.73
2019-01-21T11:16:13.716Z,-0.62
2019-01-21T11:19:07.409Z,-0.61
2019-01-21T11:21:50.746Z,-0.67
2019-01-21T11:25:07.112Z,-0.56
2019-01-21T11:28:10.095Z,-0.46
2019-01-21T11:30:57.842Z,-0.36
2019-01-21T11:34:08.407Z,-0.41
2019-01-21T11:36:59.380Z,-0.48
2019-01-21T11:40:12.687Z,-0.45
2019-01-21T11:43:15.234Z,-0.31
2019-01-21T11:46:14.548Z,-0.20
2019-01-21T11:49:27.868Z,-0.12
2019-01-21T11:52:46.783Z,-0.34
2019-01-21T11:56:05.705Z,-0.50
2019-01-21T11:59:22.379Z,-0.53
2019-01-21T12:02:16.669Z,-0.32
2019-01-21T12:05:34.915Z,-0.12
2019-01-21T12:08:47.249Z,-0.02
2019-01-21T12:11:49.207Z,0.10
2019-01-21T12:14:41.444Z,0.10
2019-01-21T12:17:56.159Z,0.07
2019-01-21T12:21:12.332Z,-0.15
2019-01-21T12:24:03.323Z,-0.16
2019-01-21T12:27:18.227Z,0.10
2019-01-21T12:30:27.192Z,0.10
2019-01-21T12:33:20.316Z,0.05
2019-01-21T12:36:25.740Z,0.05
2019-01-21T12:39:28.648Z,0.15
2019-01-21T12:42:23.124Z,0.27
2019-01-21T12:45:26.767Z,0.38
2019-01-21T12:48:36.096Z,0.47
2019-01-21T12:51:25.112Z,0.68
2019-01-21T12:54:23.610Z,0.50
2019-01-21T12:57:38.684Z,0.37
2019-01-21T13:00:43.433Z,0.28
2019-01-21T13:03:22.343Z,0.17
2019-01-21T13:06:14.377Z,0.10
2019-01-21T13:09:36.928Z,0.19
2019-01-21T13:12:35.941Z,0.34
2019-01-21T13:15:43.991Z,0.51
2019-01-21T13:18:42.578Z,0.35
2019-01-21T13:21:41.682Z,0.17
2019-01-21T13:24:44.813Z,0.32
2019-01-21T13:28:00.225Z,0.32
2019-01-21T13:31:02.551Z,0.39
2019-01-21T13:33:54.463Z,0.47
2019-01-21T13:36:53.498Z,0.56
2019-01-21T13:40:03.803Z,0.52
2019-01-21T13:42:50.536Z,0.61
2019-01-21T13:45:36.539Z,0.64
2019-01-21T13:48:46.364Z,0.86
2019-01-21T13:52:05.608Z,1.34
2019-01-21T13:55:17.732Z,1.44
2019-01-21T13:58:28.964Z,1.85
2019-01-21T14:01:31.259Z,2.71
2019-01-21T14:04:39.914Z,2.65
2019-01-21T14:07:50.389Z,2.79
2019-01-21T14:10:53.584Z,2.54
2019-01-21T14:13:45.816Z,2.44
2019-01-21T14:17:02.382Z,2.75
2019-01-21T14:20:02.656Z,3.19
2019-01-21T14:23:02.081Z,3.25
2019-01-21T14:26:10.733Z,3.81
2019-01-21T14:29:04.184Z,3.77
2019-01-21T14:32:10.109Z,3.69
2019-01-21T14:35:35.186Z,3.31
2019-01-21T14:38:54.075Z,3.90
2019-01-21T14:41:48.709Z,3.46
2019-01-21T14:44:54.537Z,3.32
2019-01-21T14:47:44.026Z,2.78
2019-01-21T14:50:57.001Z,2.81
2019-01-21T14:53:57.987Z,2.91
2019-01-21T14:56:41.721Z,2.88
2019-01-21T15:00:00.704Z,2.98
2019-01-21T15:02:54.510Z,3.20
2019-01-21T15:06:11.196Z,2.94
2019-01-21T15:08:45.746Z,2.81
2019-01-21T15:11:53.613Z,2.87
2019-01-21T15:14:47.365Z,2.72
2019-01-21T15:18:02.953Z,2.86
2019-01-21T15:20:44.372Z,2.80
2019-01-21T15:23:51.679Z,2.54
2019-01-21T15:26:48.908Z,2.24
2019-01-21T15:30:05.914Z,1.79
2019-01-21T15:32:59.995Z,1.58
2019-01-21T15:36:13.264Z,1.34
2019-01-21T15:39:24.348Z,1.12
2019-01-21T15:42:02.364Z,0.77
2019-01-21T15:45:11.558Z,0.38
2019-01-21T15:48:07.572Z,0.21
2019-01-21T15:50:56.577Z,-0.12
2019-01-21T15:53:39.515Z,-0.33
2019-01-21T15:56:37.203Z,-0.47
2019-01-21T15:59:41.614Z,-0.61
2019-01-21T16:02:54.568Z,-0.81
2019-01-21T16:06:05.043Z,-0.94
2019-01-21T16:08:55.561Z,-1.13
2019-01-21T16:11:53.688Z,-1.24
2019-01-21T16:14:30.544Z,-1.42
2019-01-21T16:17:46.446Z,-1.63
2019-01-21T16:20:32.956Z,-1.78
2019-01-21T16:23:30.016Z,-1.62
2019-01-21T16:26:13.571Z,-1.53
2019-01-21T16:29:06.910Z,-1.44
2019-01-21T16:31:53.511Z,-1.50
2019-01-21T16:35:02.957Z,-1.54
2019-01-21T16:37:53.098Z,-1.66
2019-01-21T16:41:09.098Z,-1.82
2019-01-21T16:43:37.809Z,-1.98
2019-01-21T16:46:06.442Z,-2.10
2019-01-21T16:48:36.420Z,-2.13
2019-01-21T16:51:05.155Z,-2.25
2019-01-21T16:53:34.065Z,-2.32
2019-01-21T16:56:02.781Z,-2.01
2019-01-21T16:58:31.452Z,-1.80
2019-01-21T17:01:00.069Z,-1.82
2019-01-21T17:03:28.753Z,-1.91
2019-01-21T17:05:57.502Z,-1.97
2019-01-21T17:08:26.229Z,-1.95
2019-01-21T17:10:54.870Z,-2.01
2019-01-21T17:13:23.525Z,-2.14
2019-01-21T17:15:52.168Z,-2.04
2019-01-21T17:18:20.838Z,-2.02
2019-01-21T17:20:49.520Z,-2.02
2019-01-21T17:23:18.122Z,-2.07
2019-01-21T17:25:46.750Z,-2.11
2019-01-21T17:28:15.419Z,-2.34
2019-01-21T17:30:44.036Z,-2.50
2019-01-21T17:33:12.653Z,-2.55
2019-01-21T17:35:41.326Z,-2.57
2019-01-21T17:38:09.984Z,-2.68
2019-01-21T17:40:38.645Z,-2.79
2019-01-21T17:43:07.395Z,-2.82
2019-01-21T17:45:36.129Z,-2.86
2019-01-21T17:48:04.780Z,-2.96
2019-01-21T17:50:33.417Z,-2.84
2019-01-21T17:53:02.028Z,-2.80
2019-01-21T18:03:14.480Z,-3.03
2019-01-21T18:05:43.614Z,-3.07
2019-01-21T18:08:12.269Z,-3.01
2019-01-21T18:33:50.772Z,-3.26
2019-01-21T18:36:19.453Z,-3.19
2019-01-21T18:38:48.138Z,-3.18
2019-01-21T18:41:16.755Z,-3.28
2019-01-21T18:43:45.405Z,-3.31
2019-01-21T18:46:14.077Z,-3.35
2019-01-21T18:48:42.745Z,-3.38
2019-01-21T18:51:11.420Z,-3.20
2019-01-21T18:53:40.049Z,-3.07
2019-01-21T18:56:08.690Z,-3.05
2019-01-21T18:58:37.370Z,-2.90
2019-01-21T19:01:06.024Z,-2.84
2019-01-21T19:03:34.737Z,-2.97
2019-01-21T19:06:03.509Z,-2.95
2019-01-21T19:08:32.161Z,-3.11
2019-01-21T19:11:01.061Z,-3.10
2019-01-21T19:13:29.690Z,-3.12
2019-01-21T19:15:58.298Z,-3.20
2019-01-21T19:18:26.950Z,-3.21
2019-01-21T19:20:55.543Z,-3.31
2019-01-21T19:23:24.123Z,-3.32
2019-01-21T19:25:52.746Z,-3.46
2019-01-21T19:28:21.373Z,-3.37
2019-01-21T19:30:50.016Z,-3.44
2019-01-21T19:33:18.704Z,-3.58
2019-01-21T19:35:47.365Z,-3.76
2019-01-21T19:38:15.971Z,-3.80
2019-01-21T19:40:44.598Z,-3.91
2019-01-21T19:43:13.159Z,-4.00
2019-01-21T19:45:43.210Z,-4.05
2019-01-21T19:48:12.135Z,-4.07
2019-01-21T19:50:40.769Z,-4.15
2019-01-21T19:53:09.373Z,-4.24
2019-01-21T19:55:43.030Z,-4.30
2019-01-21T19:58:14.257Z,-4.37
2019-01-21T20:00:42.987Z,-4.52
2019-01-21T20:03:11.622Z,-4.59
2019-01-21T20:05:40.255Z,-4.62
2019-01-21T20:08:08.889Z,-4.73
2019-01-21T20:10:37.504Z,-4.57
2019-01-21T20:13:06.217Z,-4.62
2019-01-21T20:15:34.907Z,-4.59
2019-01-21T20:18:03.539Z,-4.49
2019-01-21T20:20:34.765Z,-4.57
2019-01-21T20:23:03.541Z,-4.74
2019-01-21T20:25:32.204Z,-4.75
2019-01-21T20:28:00.829Z,-4.93
2019-01-21T20:30:29.461Z,-5.07
2019-01-21T20:32:58.310Z,-5.10
2019-01-21T20:35:26.997Z,-5.21
2019-01-21T20:37:55.719Z,-5.20
2019-01-21T20:40:26.366Z,-5.05
2019-01-21T20:42:55.060Z,-4.91
2019-01-21T20:45:23.672Z,-4.73
2019-01-21T20:47:52.382Z,-4.57
2019-01-21T20:50:23.566Z,-4.64
2019-01-21T20:52:52.142Z,-6.01
2019-01-21T20:55:21.263Z,-4.80
2019-01-21T20:57:49.876Z,-4.90
2019-01-21T21:00:23.639Z,-4.98
2019-01-21T21:02:52.802Z,-5.10
2019-01-21T21:05:21.401Z,-5.01
2019-01-21T21:07:49.994Z,-5.04
2019-01-21T21:10:18.947Z,-5.07
2019-01-21T21:12:47.625Z,-5.06
2019-01-21T21:38:53.533Z,-5.35
2019-01-21T21:41:22.129Z,-5.41
2019-01-21T21:43:53.860Z,-5.41
2019-01-21T21:46:25.561Z,-5.38
2019-01-21T21:48:54.178Z,-5.55
2019-01-21T21:51:22.782Z,-5.55
2019-01-21T21:53:51.358Z,-5.12
2019-01-21T21:56:19.946Z,-5.18
2019-01-21T21:58:48.528Z,-5.22
2019-01-21T22:01:23.816Z,-5.07
2019-01-21T22:03:47.413Z,-4.90
2019-01-21T22:06:15.997Z,-4.96
2019-01-21T22:08:44.616Z,-5.06
2019-01-21T22:11:13.220Z,-5.15
2019-01-21T22:13:41.807Z,-4.91
2019-01-21T22:16:10.379Z,-5.10
2019-01-21T22:18:39.046Z,-5.22
2019-01-21T22:21:07.660Z,-5.19
2019-01-21T22:23:36.257Z,-5.32
2019-01-21T22:26:04.840Z,-5.47
2019-01-21T22:28:33.523Z,-5.44
2019-01-21T22:31:02.105Z,-5.46
2019-01-21T22:33:30.740Z,-5.35
2019-01-21T22:35:59.337Z,-5.25
2019-01-21T22:38:27.939Z,-5.39
2019-01-21T22:40:56.530Z,-5.38
2019-01-21T22:43:25.542Z,-5.52
2019-01-21T22:45:54.240Z,-5.53
2019-01-21T22:48:22.927Z,-5.44
2019-01-21T22:50:51.525Z,-5.42
2019-01-21T22:53:20.162Z,-5.56
2019-01-21T22:55:48.752Z,-5.62
2019-01-21T22:58:17.368Z,-5.67
2019-01-21T23:00:52.310Z,-5.68
2019-01-21T23:03:21.105Z,-5.66
2019-01-21T23:05:49.728Z,-5.62
2019-01-21T23:08:18.492Z,-5.69
2019-01-21T23:10:47.098Z,-5.68
2019-01-21T23:13:15.731Z,-5.77
2019-01-21T23:15:44.336Z,-5.69
2019-01-21T23:18:12.937Z,-5.62
2019-01-21T23:20:41.548Z,-5.70
2019-01-21T23:23:10.410Z,-5.80
2019-01-21T23:25:39.062Z,-5.67
2019-01-21T23:28:07.683Z,-5.64
2019-01-21T23:30:36.288Z,-5.65
2019-01-21T23:33:05.120Z,-5.83
2019-01-21T23:35:34.090Z,-5.96
2019-01-21T23:38:02.794Z,-6.02
2019-01-21T23:40:31.450Z,-6.06
2019-01-21T23:43:00.076Z,-6.19
2019-01-21T23:45:28.723Z,-6.29
2019-01-21T23:47:57.367Z,-6.35
2019-01-21T23:50:26.272Z,-6.49
2019-01-21T23:52:56.249Z,-6.38
2019-01-21T23:55:25.042Z,-6.48
2019-01-21T23:57:53.638Z,-6.61
